Time;durP1;ratioP1;P1;durP2;ratioP2;P2;SDS_P1;SDS_P2;PMS_P1;PMS_P2;Temp;Humidity;BMP_temperature;BMP_pressure;BME280_temperature;BME280_humidity;BME280_pressure;Samples;Min_cycle;Max_cycle;Signal;HPM_P1;HPM_P2
2021/03/29 04:58:09;;;;;;;21.40;13.83;;;;;;;4.29;67.94;101201.63;1843079;77;28917;-65
2021/03/29 05:00:59;;;;;;;23.47;14.83;;;;;;;4.32;67.37;101196.88;1803365;77;21626;-66
2021/03/29 05:03:44;;;;;;;20.30;14.43;;;;;;;4.41;67.18;101203.19;1799396;78;20952;-65
2021/03/29 05:06:22;;;;;;;24.52;14.00;;;;;;;4.53;66.76;101199.61;1798609;78;21041;-65
2021/03/29 05:10:56;;;;;;;17.62;10.55;;;;;;;4.78;65.59;101204.03;1836595;76;21578;-65
2021/03/29 05:13:24;;;;;;;20.20;10.68;;;;;;;4.82;65.31;101202.64;1803515;77;21179;-65
2021/03/29 05:15:54;;;;;;;13.40;10.00;;;;;;;4.92;64.89;101204.23;1817743;78;22361;-64
2021/03/29 05:18:30;;;;;;;16.73;10.48;;;;;;;5.05;64.50;101202.33;1799870;77;21107;-66
2021/03/29 05:20:59;;;;;;;18.92;11.25;;;;;;;5.17;63.28;101199.58;1801415;78;21061;-66
2021/03/29 05:23:28;;;;;;;16.50;10.88;;;;;;;5.28;63.01;101207.13;1808872;77;21039;-66
2021/03/29 05:25:57;;;;;;;17.10;11.63;;;;;;;5.39;62.47;101209.55;1802060;78;21559;-68
2021/03/29 05:28:33;;;;;;;23.70;12.20;;;;;;;5.48;62.14;101201.22;1811825;78;21049;-64
2021/03/29 05:31:40;;;;;;;18.32;11.97;;;;;;;5.60;61.71;101195.82;1794271;78;21567;-64
2021/03/29 05:34:10;;;;;;;21.77;12.35;;;;;;;5.78;61.35;101199.83;1808255;79;20933;-65
2021/03/29 05:36:39;;;;;;;19.95;12.43;;;;;;;5.96;60.76;101208.59;1787125;77;21091;-64
2021/03/29 05:39:17;;;;;;;16.75;11.33;;;;;;;6.18;59.88;101213.34;1810254;77;21072;-65
2021/03/29 05:41:46;;;;;;;15.32;11.08;;;;;;;6.34;58.94;101220.78;1789282;79;21483;-64
2021/03/29 05:44:17;;;;;;;18.67;11.18;;;;;;;6.53;58.41;101230.30;1805306;79;21004;-66
2021/03/29 05:46:46;;;;;;;19.77;11.30;;;;;;;6.67;58.34;101233.91;1730744;79;20989;-66
2021/03/29 05:49:14;;;;;;;16.10;10.90;;;;;;;6.78;58.16;101233.25;1679697;82;21051;-64
2021/03/29 05:51:45;;;;;;;17.62;10.38;;;;;;;6.90;57.40;101237.28;1726094;81;20987;-66
2021/03/29 05:54:15;;;;;;;17.10;10.82;;;;;;;6.99;56.89;101248.73;1740816;81;21270;-65
2021/03/29 05:56:44;;;;;;;15.98;11.25;;;;;;;6.99;55.81;101246.15;1742683;81;21673;-65
2021/03/29 05:59:18;;;;;;;20.15;10.85;;;;;;;6.93;55.75;101251.45;1743833;80;20978;-68
2021/03/29 06:01:50;;;;;;;15.93;10.95;;;;;;;6.82;55.24;101248.23;1735029;81;21642;-68
2021/03/29 06:04:44;;;;;;;17.40;12.33;;;;;;;6.69;55.25;101245.94;1727041;81;21169;-67
2021/03/29 06:07:14;;;;;;;20.68;12.03;;;;;;;6.63;55.55;101253.81;1740206;81;21371;-64
2021/03/29 06:09:43;;;;;;;19.80;11.63;;;;;;;6.62;55.47;101253.85;1740204;81;21069;-73
2021/03/29 06:12:14;;;;;;;18.27;12.18;;;;;;;6.65;55.34;101253.34;1731010;81;21089;-63
2021/03/29 06:14:48;;;;;;;16.40;11.10;;;;;;;6.67;54.65;101254.61;1737076;81;21053;-67
2021/03/29 06:17:19;;;;;;;27.17;17.87;;;;;;;6.68;54.81;101259.76;1739130;81;21166;-66
2021/03/29 06:20:00;;;;;;;21.37;13.83;;;;;;;6.76;55.21;101268.66;1734062;80;22409;-67
2021/03/29 06:22:35;;;;;;;20.80;14.03;;;;;;;6.89;54.78;101271.83;1730501;80;21073;-66
2021/03/29 06:25:16;;;;;;;30.50;20.82;;;;;;;7.02;54.09;101274.13;1735558;82;21085;-62
2021/03/29 06:27:49;;;;;;;27.85;16.50;;;;;;;7.10;53.74;101276.55;1734504;80;20955;-65
2021/03/29 06:30:33;;;;;;;26.12;16.82;;;;;;;7.25;53.93;101283.97;1736083;82;21064;-64
2021/03/29 06:33:15;;;;;;;17.75;13.75;;;;;;;7.45;52.88;101271.86;1732841;80;21201;-65
2021/03/29 06:35:55;;;;;;;19.50;12.35;;;;;;;7.62;51.46;101277.92;1731189;82;21065;-65
2021/03/29 06:38:33;;;;;;;16.50;10.85;;;;;;;7.72;50.72;101291.08;1739248;82;21069;-67
2021/03/29 06:41:04;;;;;;;17.50;11.35;;;;;;;7.77;50.40;101285.33;1729765;82;21046;-65
2021/03/29 06:43:41;;;;;;;18.67;11.28;;;;;;;7.85;50.98;101289.04;1721427;80;21487;-67
2021/03/29 06:46:26;;;;;;;17.82;11.35;;;;;;;7.96;50.41;101290.93;1739882;81;21428;-67
2021/03/29 06:48:58;;;;;;;17.23;11.28;;;;;;;8.07;50.00;101291.92;1729178;82;21686;-66
2021/03/29 06:51:33;;;;;;;14.98;10.40;;;;;;;8.18;49.08;101299.84;1717949;81;21032;-68
2021/03/29 06:54:27;;;;;;;13.45;10.08;;;;;;;8.23;48.48;101301.87;1783707;78;21023;-67
2021/03/29 06:56:56;;;;;;;13.20;9.78;;;;;;;8.30;48.77;101306.47;1756207;80;21084;-65
2021/03/29 06:59:26;;;;;;;18.57;10.85;;;;;;;8.37;48.63;101307.19;1759283;81;21593;-65
2021/03/29 07:01:59;;;;;;;19.00;9.63;;;;;;;8.46;48.77;101305.17;1706377;81;21020;-65
2021/03/29 07:04:26;;;;;;;17.67;10.35;;;;;;;8.63;48.60;101317.70;1759261;80;21080;-65
2021/03/29 07:06:55;;;;;;;15.95;12.43;;;;;;;8.74;47.89;101316.12;1757467;81;21621;-64
2021/03/29 07:09:24;;;;;;;20.77;13.85;;;;;;;8.83;48.14;101321.87;1750184;81;21606;-64
2021/03/29 07:11:54;;;;;;;15.28;11.20;;;;;;;8.97;48.46;101327.98;1754849;80;22017;-64
2021/03/29 07:14:26;;;;;;;19.95;11.48;;;;;;;9.06;47.87;101334.22;1757862;80;21080;-67
2021/03/29 07:16:55;;;;;;;23.67;12.93;;;;;;;9.05;48.34;101332.97;1736568;81;21048;-61
2021/03/29 07:19:24;;;;;;;24.37;12.37;;;;;;;9.08;48.96;101332.43;1759061;80;21610;-64
2021/03/29 07:21:53;;;;;;;23.52;13.68;;;;;;;9.19;48.85;101330.38;1759783;81;21594;-63
2021/03/29 07:24:22;;;;;;;33.23;15.23;;;;;;;9.23;49.04;101330.66;1757432;81;22274;-66
2021/03/29 07:26:58;;;;;;;25.85;14.23;;;;;;;9.30;49.17;101329.58;1675378;83;21716;-69
2021/03/29 07:29:32;;;;;;;23.20;11.80;;;;;;;9.32;49.15;101339.93;1743253;80;21670;-68
2021/03/29 07:32:04;;;;;;;37.63;17.20;;;;;;;9.29;49.30;101332.22;1723548;83;21040;-63
2021/03/29 07:34:49;;;;;;;28.23;14.95;;;;;;;9.26;49.79;101333.17;1714150;83;21019;-62
2021/03/29 07:37:43;;;;;;;19.20;11.50;;;;;;;9.28;50.17;101339.17;1695779;83;21386;-65
2021/03/29 07:40:23;;;;;;;17.50;11.48;;;;;;;9.36;50.39;101341.55;1752527;80;21002;-64
2021/03/29 07:42:53;;;;;;;16.67;11.25;;;;;;;9.35;50.57;101346.34;1749630;80;21227;-64
2021/03/29 07:45:29;;;;;;;14.98;10.40;;;;;;;9.36;51.03;101344.14;1754061;80;21038;-64
2021/03/29 07:47:58;;;;;;;13.85;9.95;;;;;;;9.43;50.82;101343.52;1760144;80;21080;-65
2021/03/29 07:50:34;;;;;;;30.97;17.42;;;;;;;9.49;50.82;101342.03;1725990;81;21097;-64
2021/03/29 07:53:16;;;;;;;52.75;34.05;;;;;;;9.54;51.06;101339.70;1715607;81;21212;-62
2021/03/29 07:55:50;;;;;;;64.12;43.45;;;;;;;9.67;50.73;101346.64;1725578;81;21134;-65
2021/03/29 07:58:20;;;;;;;37.60;25.25;;;;;;;9.77;50.84;101342.01;1722560;83;21429;-65
2021/03/29 08:01:00;;;;;;;19.92;14.07;;;;;;;9.82;51.10;101346.16;1668462;83;21048;-64
2021/03/29 08:03:37;;;;;;;30.35;17.77;;;;;;;9.91;51.01;101335.47;1714516;81;22534;-65
2021/03/29 08:06:09;;;;;;;17.07;12.25;;;;;;;9.97;51.19;101336.58;1758422;80;21017;-66
2021/03/29 08:08:38;;;;;;;22.45;13.40;;;;;;;10.06;51.33;101332.80;1751881;80;22285;-74
2021/03/29 08:11:16;;;;;;;11.48;9.48;;;;;;;10.18;51.41;101338.89;1758484;80;21017;-65
2021/03/29 08:13:54;;;;;;;12.53;8.40;;;;;;;10.27;50.77;101333.87;1759761;80;21622;-66
2021/03/29 08:16:28;;;;;;;16.07;10.75;;;;;;;10.34;51.03;101345.78;1757021;80;21535;-65
2021/03/29 08:19:19;;;;;;;14.78;9.35;;;;;;;10.42;51.15;101341.58;1754244;80;21659;-65
2021/03/29 08:21:58;;;;;;;11.57;8.48;;;;;;;10.52;51.14;101337.77;1750780;80;21627;-65
2021/03/29 08:24:41;;;;;;;11.33;7.90;;;;;;;10.65;51.06;101337.28;1742611;80;21765;-65
2021/03/29 08:27:23;;;;;;;20.85;12.30;;;;;;;10.75;50.52;101343.02;1752020;80;21693;-65
2021/03/29 08:29:56;;;;;;;16.23;10.08;;;;;;;10.87;50.45;101348.22;1749114;81;22159;-65
2021/03/29 08:32:33;;;;;;;13.95;10.32;;;;;;;10.95;49.78;101349.64;1762942;81;21637;-66
2021/03/29 08:35:11;;;;;;;25.08;14.07;;;;;;;10.93;49.74;101353.21;1745492;80;20944;-64
2021/03/29 08:37:56;;;;;;;23.47;12.78;;;;;;;10.94;50.02;101353.61;1762085;80;21636;-65
2021/03/29 08:40:30;;;;;;;18.75;9.95;;;;;;;10.95;50.30;101350.95;1732982;81;21033;-66
2021/03/29 08:43:06;;;;;;;20.17;10.18;;;;;;;11.04;50.24;101352.37;1742360;80;21515;-69
2021/03/29 08:45:36;;;;;;;22.27;12.63;;;;;;;11.17;50.55;101360.59;1734197;81;21083;-67
2021/03/29 08:48:05;;;;;;;25.27;14.43;;;;;;;11.32;49.98;101360.84;1751740;80;21216;-64
2021/03/29 08:50:40;;;;;;;21.45;12.55;;;;;;;11.47;49.98;101360.72;1733206;80;21672;-62
2021/03/29 08:53:10;;;;;;;13.13;8.70;;;;;;;11.66;49.47;101357.77;1753117;80;21626;-65
2021/03/29 08:55:42;;;;;;;14.53;9.00;;;;;;;11.86;47.85;101367.46;1759611;81;21363;-64
2021/03/29 08:58:12;;;;;;;13.78;9.00;;;;;;;11.90;47.26;101365.13;1758335;81;21077;-67
2021/03/29 09:00:43;;;;;;;11.57;7.95;;;;;;;11.95;46.71;101375.38;1759223;81;21020;-66
2021/03/29 09:03:20;;;;;;;14.55;8.85;;;;;;;11.95;46.63;101367.09;1759719;81;21127;-66
2021/03/29 09:05:48;;;;;;;;;;;;;;;11.97;47.03;101376.17;1748453;80;21155;-66
2021/03/29 09:08:18;;;;;;;12.90;8.25;;;;;;;11.96;47.21;101372.71;1758728;80;23524;-66
2021/03/29 09:10:49;;;;;;;15.25;8.85;;;;;;;11.90;46.09;101381.24;1755969;80;21641;-68
2021/03/29 09:13:19;;;;;;;24.98;12.78;;;;;;;11.72;46.35;101380.16;1758559;80;21746;-66
2021/03/29 09:15:49;;;;;;;13.30;8.90;;;;;;;11.56;45.88;101381.70;1707511;81;21040;-65
2021/03/29 09:18:24;;;;;;;19.98;11.83;;;;;;;11.43;45.95;101380.45;1759588;81;21088;-65
2021/03/29 09:20:54;;;;;;;16.37;9.03;;;;;;;11.31;45.09;101386.52;1757717;80;21510;-66
2021/03/29 09:23:28;;;;;;;14.38;8.45;;;;;;;11.15;45.82;101384.11;1757116;80;22417;-65
2021/03/29 09:25:55;;;;;;;16.90;11.15;;;;;;;11.05;46.07;101385.80;1758037;80;21100;-66
2021/03/29 09:31:04;;;;;;;22.25;12.13;;;;;;;10.96;46.39;101386.98;1754587;81;21048;-65
2021/03/29 09:33:33;;;;;;;18.67;10.82;;;;;;;10.88;46.13;101386.40;1759569;81;22296;-66
2021/03/29 09:36:11;;;;;;;15.35;9.30;;;;;;;10.78;46.28;101388.51;1743234;82;21436;-65
2021/03/29 09:38:50;;;;;;;22.98;12.35;;;;;;;10.74;46.70;101393.42;1732538;80;21013;-65
2021/03/29 09:41:32;;;;;;;24.50;12.68;;;;;;;10.73;46.78;101403.45;1755406;80;21048;-65
2021/03/29 09:44:07;;;;;;;29.50;13.72;;;;;;;10.74;46.54;101397.33;1761496;80;21592;-66
2021/03/29 09:46:35;;;;;;;12.60;8.50;;;;;;;10.76;46.20;101402.04;1762185;80;21202;-67
2021/03/29 09:49:15;;;;;;;22.82;12.73;;;;;;;10.76;45.63;101405.95;1740574;81;21689;-67
2021/03/29 09:51:47;;;;;;;15.88;9.63;;;;;;;10.72;45.76;101403.05;1744038;80;21697;-67
2021/03/29 09:54:32;;;;;;;16.70;9.30;;;;;;;10.68;45.75;101413.17;1743183;80;22588;-65
2021/03/29 09:57:20;;;;;;;23.10;12.55;;;;;;;10.67;45.30;101420.14;1754014;81;21068;-66
2021/03/29 09:59:52;;;;;;;14.38;8.65;;;;;;;10.64;44.23;101421.55;1754420;80;21614;-67
2021/03/29 10:02:25;;;;;;;9.98;6.17;;;;;;;10.61;44.18;101426.00;1753624;81;21012;-66
2021/03/29 10:05:10;;;;;;;8.70;7.03;;;;;;;10.55;44.10;101432.27;1743385;80;21126;-66
2021/03/29 10:07:54;;;;;;;12.65;6.80;;;;;;;10.47;44.91;101434.27;1753857;81;21759;-65
2021/03/29 10:10:26;;;;;;;8.78;6.60;;;;;;;10.37;45.77;101438.11;1753910;80;21700;-66
2021/03/29 10:13:10;;;;;;;17.10;9.83;;;;;;;10.28;46.74;101427.54;1753759;81;21277;-65
2021/03/29 10:15:41;;;;;;;35.05;17.82;;;;;;;10.23;46.67;101430.73;1768263;80;20969;-66
2021/03/29 10:18:14;;;;;;;33.70;19.30;;;;;;;10.19;46.92;101437.36;1764033;80;21005;-66
2021/03/29 10:20:44;;;;;;;21.57;13.22;;;;;;;10.18;46.34;101449.97;1754338;81;20913;-67
2021/03/29 10:23:25;;;;;;;26.80;15.50;;;;;;;10.09;47.40;101446.35;1754351;81;20974;-66
2021/03/29 10:26:19;;;;;;;20.25;12.93;;;;;;;9.98;48.26;101442.36;1754173;81;22317;-66
2021/03/29 10:28:59;;;;;;;22.62;14.53;;;;;;;9.88;48.83;101453.95;1736681;81;21016;-67
2021/03/29 10:31:29;;;;;;;13.78;10.03;;;;;;;9.75;51.71;101453.91;1740571;81;20957;-66
2021/03/29 10:33:58;;;;;;;14.60;10.03;;;;;;;9.67;52.92;101454.13;1737113;80;21052;-66
2021/03/29 10:36:28;;;;;;;24.27;15.28;;;;;;;9.62;51.79;101447.36;1735443;80;21052;-65
2021/03/29 10:38:57;;;;;;;33.45;19.75;;;;;;;9.61;49.36;101452.16;1734487;81;21357;-66
2021/03/29 10:41:25;;;;;;;39.50;22.55;;;;;;;9.55;49.31;101448.02;1753304;80;20980;-66
2021/03/29 10:43:54;;;;;;;26.90;15.88;;;;;;;9.48;49.64;101452.98;1749084;81;22148;-65
2021/03/29 10:46:25;;;;;;;49.13;27.98;;;;;;;9.43;50.76;101449.66;1752666;80;22377;-66
2021/03/29 10:48:54;;;;;;;42.03;22.95;;;;;;;9.43;49.17;101450.11;1752890;80;21638;-66
2021/03/29 10:51:22;;;;;;;32.73;18.98;;;;;;;9.43;50.10;101448.36;1719984;82;21207;-66
2021/03/29 10:53:52;;;;;;;23.00;13.88;;;;;;;9.47;49.18;101454.33;1738555;82;20946;-65
2021/03/29 10:56:21;;;;;;;24.15;14.40;;;;;;;9.53;47.99;101460.66;1737726;82;21579;-66
2021/03/29 10:58:50;;;;;;;22.10;11.22;;;;;;;9.55;47.86;101457.11;1727752;82;21727;-66
2021/03/29 11:01:19;;;;;;;25.35;14.25;;;;;;;9.60;47.72;101467.35;1751187;81;21021;-66
2021/03/29 11:03:50;;;;;;;27.40;14.28;;;;;;;9.59;48.07;101474.78;1747937;81;21733;-66
2021/03/29 11:06:19;;;;;;;20.43;9.85;;;;;;;9.57;47.72;101475.27;1748313;81;21633;-65
2021/03/29 11:08:48;;;;;;;15.20;9.60;;;;;;;9.54;47.04;101481.41;1737530;81;21089;-65
2021/03/29 11:11:18;;;;;;;20.90;11.83;;;;;;;9.50;46.95;101480.23;1752029;81;21288;-67
2021/03/29 11:13:48;;;;;;;29.40;15.93;;;;;;;9.47;47.50;101482.48;1737853;81;21593;-66
2021/03/29 11:16:21;;;;;;;18.15;11.35;;;;;;;9.44;46.86;101486.47;1704653;83;21201;-66
2021/03/29 11:18:53;;;;;;;10.98;7.87;;;;;;;9.44;47.00;101492.97;1742200;81;21044;-65
2021/03/29 11:21:23;;;;;;;18.45;10.50;;;;;;;9.42;48.69;101493.45;1727413;81;20985;-66
2021/03/29 11:23:52;;;;;;;21.27;12.33;;;;;;;9.41;50.28;101504.75;1747448;81;21676;-65
2021/03/29 11:26:21;;;;;;;29.92;17.52;;;;;;;9.34;52.14;101509.26;1720207;81;21620;-65
2021/03/29 11:28:49;;;;;;;42.38;21.27;;;;;;;9.28;53.62;101512.02;1721733;82;22101;-65
2021/03/29 11:31:20;;;;;;;20.62;12.10;;;;;;;9.19;54.76;101534.39;1728909;81;21068;-65
2021/03/29 11:33:48;;;;;;;21.57;12.65;;;;;;;9.05;54.87;101519.59;1712883;83;21749;-66
2021/03/29 11:36:18;;;;;;;14.45;9.65;;;;;;;8.94;56.71;101532.85;1751917;81;21614;-68
2021/03/29 11:38:47;;;;;;;12.85;9.03;;;;;;;8.82;57.42;101525.36;1751818;81;21669;-65
2021/03/29 11:41:20;;;;;;;19.73;12.95;;;;;;;8.74;58.36;101533.81;1752189;81;21919;-66
2021/03/29 11:43:49;;;;;;;23.98;16.05;;;;;;;8.69;57.92;101539.13;1751437;81;21077;-67
2021/03/29 11:46:17;;;;;;;21.17;14.07;;;;;;;8.60;58.00;101530.25;1735748;81;21657;-64
2021/03/29 11:48:47;;;;;;;23.67;13.90;;;;;;;8.54;57.62;101534.28;1725380;81;21052;-68
2021/03/29 11:51:16;;;;;;;22.15;13.55;;;;;;;8.47;58.75;101527.52;1728678;81;21555;-66
2021/03/29 11:53:44;;;;;;;26.75;13.28;;;;;;;8.43;58.87;101532.82;1751626;81;22179;-69
2021/03/29 11:56:13;;;;;;;22.87;14.07;;;;;;;8.40;58.91;101540.23;1740739;81;21756;-66
2021/03/29 11:58:42;;;;;;;24.07;13.95;;;;;;;8.40;58.48;101539.41;1720098;83;21649;-64
2021/03/29 12:01:21;;;;;;;13.68;9.95;;;;;;;8.40;59.41;101536.81;1720084;83;21682;-65
2021/03/29 12:03:56;;;;;;;9.53;7.80;;;;;;;8.43;59.38;101540.16;1728636;81;21345;-66
2021/03/29 12:06:29;;;;;;;13.43;8.35;;;;;;;8.50;58.83;101542.17;1748848;81;22575;-66
2021/03/29 12:09:43;;;;;;;15.32;9.33;;;;;;;8.56;59.60;101535.10;1748190;81;21592;-68
2021/03/29 12:11:58;;;;;;;20.08;11.18;;;;;;;8.59;59.29;101550.61;1735990;81;21143;-67
2021/03/29 12:14:18;;;;;;;19.42;10.48;;;;;;;8.58;59.60;101551.94;1716677;81;21197;-67
2021/03/29 12:16:53;;;;;;;16.05;9.80;;;;;;;8.52;60.05;101559.42;1725055;81;21712;-68
2021/03/29 12:19:30;;;;;;;21.50;10.90;;;;;;;8.48;60.73;101552.59;1737180;81;21059;-67
2021/03/29 12:22:14;;;;;;;20.80;11.70;;;;;;;8.47;61.63;101558.67;1747956;81;21113;-65
2021/03/29 12:24:45;;;;;;;14.53;9.18;;;;;;;8.42;61.29;101563.56;1743766;81;21078;-66
2021/03/29 12:27:13;;;;;;;17.82;11.33;;;;;;;8.37;63.04;101564.98;1726136;81;21727;-66
2021/03/29 12:29:44;;;;;;;16.65;9.48;;;;;;;8.36;62.58;101567.17;1738176;81;21211;-66
2021/03/29 12:32:15;;;;;;;18.20;10.95;;;;;;;8.35;62.18;101568.06;1722887;81;21365;-66
2021/03/29 12:34:59;;;;;;;17.05;9.78;;;;;;;8.30;63.28;101564.23;1751772;81;21006;-67
2021/03/29 12:37:31;;;;;;;11.00;8.58;;;;;;;8.23;64.68;101566.55;1752005;81;21686;-65
2021/03/29 12:40:03;;;;;;;11.83;7.00;;;;;;;8.16;65.34;101567.57;1752343;81;20942;-67
2021/03/29 12:42:34;;;;;;;11.18;7.28;;;;;;;8.12;65.65;101574.16;1701534;81;21618;-65
2021/03/29 12:45:02;;;;;;;19.52;12.05;;;;;;;8.06;66.10;101569.95;1752461;81;22272;-65
2021/03/29 12:47:33;;;;;;;23.32;14.60;;;;;;;8.06;66.45;101567.80;1723491;81;21622;-66
2021/03/29 12:50:12;;;;;;;16.62;11.30;;;;;;;8.06;65.33;101567.34;1725664;81;21691;-67
2021/03/29 12:52:44;;;;;;;11.93;8.63;;;;;;;8.04;65.50;101575.61;1738964;81;21451;-66
2021/03/29 12:55:16;;;;;;;9.58;7.50;;;;;;;8.01;65.88;101575.23;1733429;81;21033;-66
2021/03/29 12:57:45;;;;;;;8.25;6.60;;;;;;;8.01;66.53;101576.97;1737065;81;21338;-68
2021/03/29 13:00:20;;;;;;;8.25;6.40;;;;;;;7.99;66.71;101573.14;1742955;81;21629;-69
2021/03/29 13:02:50;;;;;;;8.85;6.10;;;;;;;7.95;66.98;101575.38;1739630;80;21072;-66
2021/03/29 13:05:52;;;;;;;7.90;6.22;;;;;;;7.92;67.37;101579.78;1745014;79;21351;-67
2021/03/29 13:08:22;;;;;;;7.97;6.03;;;;;;;7.86;68.11;101587.23;1752677;80;21081;-64
2021/03/29 13:13:41;;;;;;;16.42;9.88;;;;;;;7.79;69.79;101592.13;1733210;81;21021;-68
2021/03/29 13:16:10;;;;;;;12.15;8.45;;;;;;;7.73;70.83;101592.24;1722645;83;21698;-65
2021/03/29 13:18:41;;;;;;;12.18;8.15;;;;;;;7.68;70.85;101596.22;1735612;80;21068;-67
2021/03/29 13:21:09;;;;;;;12.43;7.70;;;;;;;7.61;71.85;101606.73;1739353;81;21609;-66
2021/03/29 13:23:38;;;;;;;12.80;7.90;;;;;;;7.54;71.75;101598.68;1744414;81;21413;-66
2021/03/29 13:26:12;;;;;;;12.58;7.92;;;;;;;7.42;71.89;101607.97;1708401;83;21642;-65
2021/03/29 13:28:40;;;;;;;10.95;7.40;;;;;;;7.28;71.86;101606.91;1748337;80;21290;-66
2021/03/29 13:31:09;;;;;;;10.15;7.42;;;;;;;7.19;72.59;101604.50;1753262;81;21713;-69
2021/03/29 13:33:38;;;;;;;9.58;7.25;;;;;;;7.15;72.77;101608.02;1754131;80;21635;-66
2021/03/29 13:36:07;;;;;;;10.58;7.50;;;;;;;7.07;72.86;101606.84;1734188;81;22321;-67
2021/03/29 13:38:39;;;;;;;10.10;7.78;;;;;;;7.03;73.21;101611.66;1701700;83;21064;-66
2021/03/29 13:41:07;;;;;;;8.05;6.30;;;;;;;6.99;73.37;101606.11;1739940;81;21018;-67
2021/03/29 13:43:39;;;;;;;9.60;6.90;;;;;;;6.94;73.68;101610.07;1737520;80;21597;-67
2021/03/29 13:46:10;;;;;;;9.10;6.33;;;;;;;6.91;73.56;101615.30;1734023;80;21244;-67
2021/03/29 13:48:42;;;;;;;8.93;6.10;;;;;;;6.88;74.23;101610.60;1740390;79;21198;-68
2021/03/29 13:51:12;;;;;;;10.30;7.42;;;;;;;6.86;74.53;101611.06;1716898;83;21136;-67
2021/03/29 13:53:56;;;;;;;10.18;7.67;;;;;;;6.81;74.24;101609.84;1753152;80;21048;-68
2021/03/29 13:56:20;;;;;;;13.18;7.78;;;;;;;6.75;74.90;101609.10;1720132;81;21068;-66
2021/03/29 13:58:51;;;;;;;13.95;9.03;;;;;;;6.69;75.41;101608.31;1707656;83;21083;-67
2021/03/29 14:01:21;;;;;;;16.05;8.75;;;;;;;6.64;75.74;101601.49;1682287;84;21383;-69
2021/03/29 14:03:50;;;;;;;13.75;8.90;;;;;;;6.62;76.48;101607.13;1685940;84;21047;-68
2021/03/29 14:06:19;;;;;;;13.38;8.88;;;;;;;6.62;77.29;101613.59;1707725;84;21627;-67
2021/03/29 14:08:47;;;;;;;13.85;9.20;;;;;;;6.62;77.58;101606.69;1707797;84;21057;-70
2021/03/29 14:11:16;;;;;;;11.55;8.15;;;;;;;6.62;77.80;101608.42;1706050;84;21285;-66
2021/03/29 14:13:46;;;;;;;15.83;9.15;;;;;;;6.62;77.87;101605.83;1707371;84;21309;-67
2021/03/29 14:16:16;;;;;;;12.85;8.80;;;;;;;6.60;79.08;101600.68;1708588;84;20982;-65
2021/03/29 14:18:46;;;;;;;11.30;8.08;;;;;;;6.60;78.85;101598.09;1708302;84;21037;-69
2021/03/29 14:21:22;;;;;;;12.10;8.73;;;;;;;6.55;78.97;101597.73;1708378;84;21500;-66
2021/03/29 14:23:52;;;;;;;16.00;9.23;;;;;;;6.52;80.06;101608.13;1708380;84;21105;-66
2021/03/29 14:26:21;;;;;;;11.63;8.10;;;;;;;6.51;80.60;101601.25;1696743;84;21412;-65
2021/03/29 14:28:49;;;;;;;13.08;8.70;;;;;;;6.51;80.63;101605.98;1730546;82;21060;-65
2021/03/29 14:31:19;;;;;;;12.28;9.05;;;;;;;6.49;79.93;101605.59;1729186;82;21537;-67
2021/03/29 14:33:49;;;;;;;10.63;8.23;;;;;;;6.48;79.87;101606.02;1708392;84;20915;-66
2021/03/29 14:36:35;;;;;;;15.30;9.30;;;;;;;6.49;79.98;101606.88;1691214;84;21508;-67
2021/03/29 14:39:07;;;;;;;14.28;10.20;;;;;;;6.46;80.04;101604.33;1708139;84;22171;-66
2021/03/29 14:46:35;;;;;;;14.93;11.05;;;;;;;6.40;80.34;101598.80;1746488;81;21563;-66
2021/03/29 14:49:04;;;;;;;15.98;11.22;;;;;;;6.39;80.20;101606.18;1746460;82;21544;-67
2021/03/29 14:51:32;;;;;;;18.20;11.85;;;;;;;6.39;80.29;101601.00;1708371;84;22085;-66
2021/03/29 14:54:02;;;;;;;16.73;11.63;;;;;;;6.38;80.09;101599.73;1727325;82;21579;-67
2021/03/29 14:56:30;;;;;;;13.58;10.23;;;;;;;6.35;80.14;101598.89;1682247;85;21667;-66
2021/03/29 14:58:58;;;;;;;17.60;11.03;;;;;;;6.36;79.94;101601.05;1683303;83;21661;-67
2021/03/29 15:01:27;;;;;;;16.77;9.78;;;;;;;6.35;79.48;101600.19;1748650;80;21548;-66
2021/03/29 15:03:56;;;;;;;10.82;8.43;;;;;;;6.35;79.66;101594.16;1755559;80;22049;-67
2021/03/29 15:08:59;;;;;;;15.23;10.43;;;;;;;6.36;78.32;101593.28;1720795;82;21662;-65
2021/03/29 15:11:28;;;;;;;14.70;11.50;;;;;;;6.34;78.39;101599.77;1741494;82;21500;-65
2021/03/29 15:13:58;;;;;;;14.50;10.10;;;;;;;6.34;78.38;101600.21;1741716;82;20946;-67
2021/03/29 15:16:27;;;;;;;12.13;9.48;;;;;;;6.34;77.79;101600.21;1741693;82;21865;-67
2021/03/29 15:18:56;;;;;;;16.15;12.25;;;;;;;6.34;77.71;101602.80;1741608;82;21501;-67
2021/03/29 15:21:25;;;;;;;18.65;12.05;;;;;;;6.34;77.47;101606.23;1741657;82;21501;-67
2021/03/29 15:23:53;;;;;;;13.53;10.25;;;;;;;6.33;77.19;101600.65;1741626;82;21563;-66
2021/03/29 15:26:22;;;;;;;13.40;10.65;;;;;;;6.34;77.34;101602.80;1741675;82;21591;-67
2021/03/29 15:28:51;;;;;;;15.98;9.95;;;;;;;6.33;77.62;101607.55;1741775;82;22219;-66
2021/03/29 15:31:20;;;;;;;14.45;10.32;;;;;;;6.30;76.92;101603.27;1741523;82;21619;-67
2021/03/29 15:33:48;;;;;;;13.15;10.65;;;;;;;6.31;76.71;101602.84;1741207;82;22125;-67
2021/03/29 15:36:17;;;;;;;12.05;9.28;;;;;;;6.32;76.73;101605.84;1741330;82;21508;-67
2021/03/29 15:38:45;;;;;;;16.20;11.80;;;;;;;6.33;76.96;101598.50;1741185;82;21564;-66
2021/03/29 15:41:14;;;;;;;18.75;11.00;;;;;;;6.35;77.23;101605.36;1741643;82;22171;-68
2021/03/29 15:43:46;;;;;;;16.95;10.63;;;;;;;6.36;76.54;101610.09;1741404;82;20990;-67
2021/03/29 15:46:18;;;;;;;10.70;8.83;;;;;;;6.36;76.29;101610.09;1741666;82;21393;-67
2021/03/29 15:48:47;;;;;;;12.85;8.98;;;;;;;6.39;76.50;101608.77;1741646;82;21516;-67
2021/03/29 15:51:16;;;;;;;17.98;10.72;;;;;;;6.42;76.62;101614.31;1741611;82;21365;-67
2021/03/29 15:53:44;;;;;;;12.25;9.73;;;;;;;6.44;76.92;101613.84;1741541;82;21197;-67
2021/03/29 15:56:13;;;;;;;12.23;9.25;;;;;;;6.45;76.80;101609.95;1741590;82;20958;-66
2021/03/29 15:58:43;;;;;;;13.08;10.08;;;;;;;6.46;76.47;101608.22;1742743;82;21488;-67
2021/03/29 16:01:13;;;;;;;14.87;9.83;;;;;;;6.48;76.53;101607.76;1744523;82;21030;-67
2021/03/29 16:03:43;;;;;;;23.95;16.87;;;;;;;6.52;76.61;101608.13;1744494;82;21033;-67
2021/03/29 16:06:14;;;;;;;32.35;21.55;;;;;;;6.55;76.52;101614.13;1744649;82;22089;-66
2021/03/29 16:08:42;;;;;;;27.80;18.90;;;;;;;6.57;76.83;101600.72;1744580;82;21594;-66
2021/03/29 16:11:12;;;;;;;19.57;14.83;;;;;;;6.61;77.43;101604.98;1744514;81;21041;-66
2021/03/29 16:13:42;;;;;;;24.92;15.85;;;;;;;6.62;77.89;101612.30;1744545;81;21493;-67
2021/03/29 16:16:11;;;;;;;29.98;19.82;;;;;;;6.63;77.86;101601.93;1744588;81;21567;-66
2021/03/29 16:18:40;;;;;;;37.05;25.80;;;;;;;6.63;78.36;101610.98;1744594;82;22162;-67
2021/03/29 16:21:09;;;;;;;50.00;34.43;;;;;;;6.63;78.54;101607.11;1744535;81;21056;-67
2021/03/29 16:23:38;;;;;;;35.38;24.90;;;;;;;6.63;78.35;101612.72;1744661;82;21619;-67
2021/03/29 16:26:09;;;;;;;31.55;21.25;;;;;;;6.60;78.65;101617.50;1744143;82;21635;-66
2021/03/29 16:28:39;;;;;;;27.73;19.87;;;;;;;6.59;78.88;101614.50;1743238;82;21093;-67
2021/03/29 16:31:10;;;;;;;33.53;25.05;;;;;;;6.61;78.80;101614.48;1740616;82;22272;-67
2021/03/29 16:33:38;;;;;;;31.37;24.43;;;;;;;6.61;78.83;101615.33;1744322;81;21651;-67
2021/03/29 16:36:08;;;;;;;25.45;18.50;;;;;;;6.65;78.94;101617.00;1744372;81;21599;-67
2021/03/29 16:38:37;;;;;;;28.38;19.87;;;;;;;6.67;79.42;101618.27;1744391;82;20942;-68
2021/03/29 16:41:06;;;;;;;41.42;28.95;;;;;;;6.70;79.57;101618.23;1744635;82;21520;-67
2021/03/29 16:43:34;;;;;;;38.08;27.85;;;;;;;6.69;79.69;101620.41;1744588;82;21873;-68
2021/03/29 16:46:07;;;;;;;38.95;29.70;;;;;;;6.68;79.54;101618.25;1740660;82;21527;-68
2021/03/29 16:48:36;;;;;;;44.58;31.25;;;;;;;6.69;79.76;101617.38;1744629;82;21436;-68
2021/03/29 16:51:06;;;;;;;62.73;42.55;;;;;;;6.71;79.83;101619.94;1744490;82;20961;-67
2021/03/29 16:53:34;;;;;;;62.10;41.20;;;;;;;6.73;80.05;101618.62;1744583;82;20950;-67
2021/03/29 16:56:05;;;;;;;52.53;35.25;;;;;;;6.75;79.83;101623.34;1744582;82;21412;-67